Time;durP1;ratioP1;P1;durP2;ratioP2;P2;SDS_P1;SDS_P2;PMS_P1;PMS_P2;Temp;Humidity;BMP_temperature;BMP_pressure;BME280_temperature;BME280_humidity;BME280_pressure;Samples;Min_cycle;Max_cycle;Signal;HPM_P1;HPM_P2
2021/08/11 00:00:14;;;;;;;;;;;;;;;23.18;67.17;96940.53;221165;262;98008;-50
2021/08/11 00:01:15;;;;;;;;;;;;;;;23.17;66.98;96940.85;221132;262;99085;-52
2021/08/11 00:02:16;;;;;;;;;;;;;;;23.02;70.29;96936.83;220703;262;98904;-51
2021/08/11 00:03:18;;;;;;;;;;;;;;;22.99;67.69;96938.33;221150;262;98926;-51
2021/08/11 00:04:19;;;;;;;;;;;;;;;22.69;69.78;96936.88;222000;261;99035;-52
2021/08/11 00:05:20;;;;;;;;;;;;;;;22.76;69.13;96939.32;222180;261;97936;-51
2021/08/11 00:06:22;;;;;;;;;;;;;;;22.49;72.88;96943.52;222261;261;98929;-56
2021/08/11 00:07:23;;;;;;;;;;;;;;;22.60;69.29;96937.55;222799;261;99032;-52
2021/08/11 00:08:24;;;;;;;;;;;;;;;22.71;68.68;96941.48;222370;261;98910;-50
2021/08/11 00:11:58;;;;;;;;;;;;;;;23.30;66.90;96942.48;226938;255;70137;-55
2021/08/11 00:12:59;;;;;;;;;;;;;;;23.38;66.67;96938.77;222586;260;190278;-55
2021/08/11 00:14:00;;;;;;;;;;;;;;;23.33;66.59;96934.86;222251;260;275545;-56
2021/08/11 00:15:02;;;;;;;;;;;;;;;23.39;66.47;96937.61;221475;261;194784;-51
2021/08/11 00:16:04;;;;;;;;;;;;;;;23.29;66.53;96939.48;222680;260;194355;-53
2021/08/11 00:17:06;;;;;;;;;;;;;;;23.23;66.64;96937.52;222857;260;98958;-57
2021/08/11 00:18:07;;;;;;;;;;;;;;;23.26;66.72;96937.40;222121;260;98004;-50
2021/08/11 00:19:08;;;;;;;;;;;;;;;23.28;66.49;96928.17;221614;262;100354;-56
2021/08/11 00:20:10;;;;;;;;;;;;;;;23.37;66.63;96931.05;220231;263;98950;-52
2021/08/11 00:21:11;;;;;;;;;;;;;;;23.31;66.51;96926.92;219643;263;177576;-54
2021/08/11 00:22:12;;;;;;;;;;;;;;;23.29;66.72;96922.90;219779;263;196117;-53
2021/08/11 00:23:15;;;;;;;;;;;;;;;23.44;66.50;96927.70;219741;263;192725;-55
2021/08/11 00:24:16;;;;;;;;;;;;;;;23.41;66.29;96924.27;219826;263;98950;-53
2021/08/11 00:25:17;;;;;;;;;;;;;;;23.32;66.39;96923.58;221262;261;98922;-52
2021/08/11 00:26:19;;;;;;;;;;;;;;;23.32;66.39;96924.96;221384;263;98939;-55
2021/08/11 00:27:20;;;;;;;;;;;;;;;23.41;66.27;96924.27;221091;263;99112;-54
2021/08/11 00:28:21;;;;;;;;;;;;;;;23.26;66.45;96929.91;221366;263;98023;-54
2021/08/11 00:29:23;;;;;;;;;;;;;;;23.41;66.10;96929.80;220972;263;194817;-52
2021/08/11 00:30:24;;;;;;;;;;;;;;;23.41;66.01;96933.94;221052;263;192113;-54
2021/08/11 00:31:25;;;;;;;;;;;;;;;23.30;66.12;96927.27;221298;263;98933;-54
2021/08/11 00:32:27;;;;;;;;;;;;;;;23.25;66.21;96931.06;221171;263;98859;-53
2021/08/11 00:33:28;;;;;;;;;;;;;;;23.17;66.54;96927.03;221298;263;97960;-55
2021/08/11 00:34:29;;;;;;;;;;;;;;;23.14;66.51;96926.34;221120;263;98088;-54
2021/08/11 00:35:31;;;;;;;;;;;;;;;23.29;66.27;96932.58;221166;263;97073;-54
2021/08/11 00:36:32;;;;;;;;;;;;;;;23.23;66.31;96929.80;221151;263;98961;-56
2021/08/11 00:37:33;;;;;;;;;;;;;;;23.26;66.25;96931.28;220973;263;99474;-53
2021/08/11 00:38:35;;;;;;;;;;;;;;;23.25;66.18;96928.87;221192;263;99456;-56
2021/08/11 00:39:36;;;;;;;;;;;;;;;23.25;66.25;96933.02;220998;263;190401;-56
2021/08/11 00:40:37;;;;;;;;;;;;;;;23.29;66.31;96930.62;220894;263;278622;-47
2021/08/11 00:41:44;;;;;;;;;;;;;;;23.21;66.26;96935.69;220974;263;195759;-56
2021/08/11 00:42:42;;;;;;;;;;;;;;;23.15;66.28;96936.25;220467;262;164897;-49
2021/08/11 00:43:43;;;;;;;;;;;;;;;23.15;66.40;96943.16;221764;262;99432;-49
2021/08/11 00:44:45;;;;;;;;;;;;;;;23.18;66.26;96931.41;221623;262;98940;-55
2021/08/11 00:45:46;;;;;;;;;;;;;;;23.30;66.24;96938.33;221087;263;100249;-55
2021/08/11 00:46:50;;;;;;;;;;;;;;;23.21;66.25;96938.45;220995;263;98986;-56
2021/08/11 00:47:50;;;;;;;;;;;;;;;23.21;66.29;96932.92;220930;263;245152;-54
2021/08/11 00:48:52;;;;;;;;;;;;;;;23.28;66.16;96942.00;220798;263;195758;-52
2021/08/11 00:49:53;;;;;;;;;;;;;;;23.25;66.12;96937.17;220952;263;193818;-50
2021/08/11 00:50:54;;;;;;;;;;;;;;;23.17;66.37;96936.70;221188;263;97977;-52
2021/08/11 00:51:56;;;;;;;;;;;;;;;23.15;66.29;96939.02;220961;263;99039;-51
2021/08/11 00:52:57;;;;;;;;;;;;;;;23.08;66.42;96941.80;220772;263;98965;-54
2021/08/11 00:53:58;;;;;;;;;;;;;;;23.16;66.34;96946.96;221273;262;98870;-54
2021/08/11 00:55:00;;;;;;;;;;;;;;;23.16;66.25;96939.23;221546;262;98946;-49
2021/08/11 00:56:01;;;;;;;;;;;;;;;23.17;66.29;96936.70;221374;262;98020;-56
2021/08/11 00:57:04;;;;;;;;;;;;;;;23.14;66.31;96934.64;221426;261;98005;-55
2021/08/11 00:58:05;;;;;;;;;;;;;;;23.16;66.32;96936.48;220578;262;67316;-56
2021/08/11 00:59:07;;;;;;;;;;;;;;;23.07;66.53;96940.19;220295;263;98030;-55
2021/08/11 01:00:08;;;;;;;;;;;;;;;23.04;66.60;96940.05;222280;261;98014;-50
2021/08/11 01:01:09;;;;;;;;;;;;;;;23.04;66.57;96933.14;222164;261;97674;-52
2021/08/11 01:02:11;;;;;;;;;;;;;;;23.00;66.54;96935.80;221169;262;276560;-56
2021/08/11 01:03:12;;;;;;;;;;;;;;;23.05;66.58;96938.31;222266;261;194944;-54
2021/08/11 01:04:13;;;;;;;;;;;;;;;23.02;66.57;96939.02;221049;262;194037;-59
2021/08/11 01:05:15;;;;;;;;;;;;;;;23.00;66.67;96940.52;221710;262;98954;-56
2021/08/11 01:06:16;;;;;;;;;;;;;;;23.00;66.59;96946.86;220819;263;98020;-54
2021/08/11 01:07:17;;;;;;;;;;;;;;;23.04;66.58;96940.86;222132;262;98000;-58
2021/08/11 01:08:19;;;;;;;;;;;;;;;23.05;66.55;96941.66;220639;263;98951;-56
2021/08/11 01:09:20;;;;;;;;;;;;;;;23.07;66.38;96936.59;221650;262;100238;-51
2021/08/11 01:10:21;;;;;;;;;;;;;;;23.05;66.45;96941.08;221079;261;98944;-53
2021/08/11 01:11:23;;;;;;;;;;;;;;;23.05;66.50;96943.04;220708;262;98966;-51
2021/08/11 01:12:24;;;;;;;;;;;;;;;22.96;66.61;96943.14;220688;262;98973;-59
2021/08/11 01:13:25;;;;;;;;;;;;;;;23.09;66.39;96948.12;220263;264;98977;-52
2021/08/11 01:14:29;;;;;;;;;;;;;;;22.99;66.59;96949.39;220284;263;99034;-54
2021/08/11 01:15:30;;;;;;;;;;;;;;;22.98;66.74;96946.98;220647;263;69997;-54
2021/08/11 01:16:31;;;;;;;;;;;;;;;22.99;66.59;96956.88;220582;263;277589;-55
2021/08/11 01:17:32;;;;;;;;;;;;;;;22.94;66.70;96948.22;220669;263;197030;-54
2021/08/11 01:18:34;;;;;;;;;;;;;;;22.96;66.57;96950.63;220493;263;194056;-50
2021/08/11 01:19:35;;;;;;;;;;;;;;;22.96;66.68;96958.34;221438;261;98862;-58
2021/08/11 01:20:36;;;;;;;;;;;;;;;22.92;66.72;96962.16;220439;262;98949;-52
2021/08/11 01:21:38;;;;;;;;;;;;;;;22.91;66.78;96961.93;222096;261;99049;-57
2021/08/11 01:22:39;;;;;;;;;;;;;;;22.87;66.81;96958.25;221071;263;98991;-54
2021/08/11 01:23:41;;;;;;;;;;;;;;;22.86;66.94;96952.46;221264;263;98938;-49
2021/08/11 01:24:42;;;;;;;;;;;;;;;22.85;66.87;96957.19;220984;263;98038;-51
2021/08/11 01:25:43;;;;;;;;;;;;;;;22.83;66.90;96949.79;220861;263;192429;-53
2021/08/11 01:26:45;;;;;;;;;;;;;;;22.87;66.89;96955.48;221085;263;98930;-49
2021/08/11 01:27:46;;;;;;;;;;;;;;;22.86;66.87;96955.23;220941;263;98901;-53
2021/08/11 01:28:47;;;;;;;;;;;;;;;22.82;66.90;96955.09;221142;263;97984;-58
2021/08/11 01:29:49;;;;;;;;;;;;;;;22.81;66.98;96953.48;220910;263;98124;-52
2021/08/11 01:30:50;;;;;;;;;;;;;;;22.83;66.91;96958.08;221121;263;97696;-55
2021/08/11 01:31:51;;;;;;;;;;;;;;;22.75;67.11;96959.78;221016;263;98969;-47
2021/08/11 01:32:53;;;;;;;;;;;;;;;22.75;67.08;96957.02;220991;263;98980;-54
2021/08/11 01:33:54;;;;;;;;;;;;;;;22.74;67.03;96955.41;221253;263;99469;-50
2021/08/11 01:34:55;;;;;;;;;;;;;;;22.79;67.04;96957.16;220994;263;98934;-55
2021/08/11 01:35:57;;;;;;;;;;;;;;;22.80;67.03;96956.81;221220;263;98893;-52
2021/08/11 01:36:58;;;;;;;;;;;;;;;22.80;66.92;96958.20;221046;263;98949;-47
2021/08/11 01:37:59;;;;;;;;;;;;;;;22.82;66.91;96959.23;221309;263;100126;-51
2021/08/11 01:39:01;;;;;;;;;;;;;;;22.77;67.04;96955.33;221099;263;98938;-53
2021/08/11 01:40:02;;;;;;;;;;;;;;;22.76;67.06;96958.66;220986;263;98960;-54
2021/08/11 01:41:03;;;;;;;;;;;;;;;22.74;67.12;96956.80;221276;263;97976;-52
2021/08/11 01:42:05;;;;;;;;;;;;;;;22.71;67.17;96950.58;221266;262;98852;-51
2021/08/11 01:43:06;;;;;;;;;;;;;;;22.70;67.17;96953.69;221501;262;97077;-55
2021/08/11 01:44:08;;;;;;;;;;;;;;;22.69;67.28;96953.45;221915;261;98900;-52
2021/08/11 01:45:12;;;;;;;;;;;;;;;22.71;67.15;96956.10;220944;263;99004;-54
2021/08/11 01:46:13;;;;;;;;;;;;;;;22.76;67.04;96957.28;221764;262;194605;-51
2021/08/11 01:47:15;;;;;;;;;;;;;;;22.72;67.12;96956.91;220700;263;192194;-55
2021/08/11 01:48:16;;;;;;;;;;;;;;;22.67;67.22;96957.14;222110;262;98902;-50
2021/08/11 01:49:17;;;;;;;;;;;;;;;22.64;67.34;96952.28;220082;263;98942;-52
2021/08/11 01:50:19;;;;;;;;;;;;;;;22.64;67.26;96955.05;221277;262;98958;-57
2021/08/11 01:51:20;;;;;;;;;;;;;;;22.63;67.35;96952.05;221792;262;99137;-52
2021/08/11 01:52:21;;;;;;;;;;;;;;;22.63;67.37;96961.72;222114;262;97959;-52
2021/08/11 01:53:23;;;;;;;;;;;;;;;22.63;67.31;96961.72;220521;263;98053;-52
2021/08/11 01:54:24;;;;;;;;;;;;;;;22.62;67.32;96960.11;221687;262;99043;-56
2021/08/11 01:55:25;;;;;;;;;;;;;;;22.68;67.16;96964.28;220919;263;98951;-53
2021/08/11 01:56:27;;;;;;;;;;;;;;;22.67;67.25;96958.53;221883;262;98937;-53
2021/08/11 01:57:28;;;;;;;;;;;;;;;22.65;67.25;96960.80;221045;263;97983;-51
2021/08/11 01:58:29;;;;;;;;;;;;;;;22.68;67.17;96961.52;221876;262;99265;-56
2021/08/11 01:59:31;;;;;;;;;;;;;;;22.64;67.27;96961.95;221050;263;98008;-50
2021/08/11 02:00:32;;;;;;;;;;;;;;;22.68;67.19;96961.52;222053;261;97064;-51
2021/08/11 02:01:33;;;;;;;;;;;;;;;22.69;67.14;96964.51;221288;262;99483;-52
2021/08/11 02:02:35;;;;;;;;;;;;;;;22.69;67.06;96963.94;221623;262;98966;-55
2021/08/11 02:03:36;;;;;;;;;;;;;;;22.63;67.30;96964.48;220030;261;98042;-53
2021/08/11 02:04:37;;;;;;;;;;;;;;;22.60;67.35;96963.22;222097;262;98014;-53
2021/08/11 02:05:39;;;;;;;;;;;;;;;22.62;67.29;96971.16;222500;260;98104;-47
2021/08/11 02:06:40;;;;;;;;;;;;;;;22.60;67.37;96964.60;220277;263;97586;-52
2021/08/11 02:07:41;;;;;;;;;;;;;;;22.65;67.21;96963.02;220717;262;98946;-52
2021/08/11 02:08:43;;;;;;;;;;;;;;;22.60;67.38;96962.41;221965;261;98947;-53
2021/08/11 02:09:45;;;;;;;;;;;;;;;22.65;67.20;96962.18;221376;262;98903;-51
2021/08/11 02:10:47;;;;;;;;;;;;;;;22.62;67.32;96957.34;221267;262;98957;-55
2021/08/11 02:11:49;;;;;;;;;;;;;;;22.57;67.45;96960.34;222623;261;98088;-54
2021/08/11 02:12:50;;;;;;;;;;;;;;;22.60;67.33;96961.84;221282;262;97677;-51
2021/08/11 02:13:51;;;;;;;;;;;;;;;22.60;67.29;96959.08;221670;262;276005;-57
2021/08/11 02:14:53;;;;;;;;;;;;;;;22.60;67.34;96961.03;220944;262;193813;-52
2021/08/11 02:15:54;;;;;;;;;;;;;;;22.58;67.36;96957.23;221768;262;193465;-52
2021/08/11 02:16:56;;;;;;;;;;;;;;;22.57;67.38;96963.11;221015;263;98928;-55
2021/08/11 02:17:57;;;;;;;;;;;;;;;22.56;67.50;96954.02;221859;262;99308;-53
2021/08/11 02:18:58;;;;;;;;;;;;;;;22.56;67.53;96969.78;221039;263;99188;-52
2021/08/11 02:20:00;;;;;;;;;;;;;;;22.59;67.38;96962.19;221890;262;97615;-55
2021/08/11 02:21:01;;;;;;;;;;;;;;;22.61;67.27;96962.64;221517;262;98958;-48
2021/08/11 02:22:02;;;;;;;;;;;;;;;22.61;67.35;96964.02;221892;261;98933;-56
2021/08/11 02:23:04;;;;;;;;;;;;;;;22.59;67.38;96960.80;220168;263;194115;-51
2021/08/11 02:24:05;;;;;;;;;;;;;;;22.59;67.34;96964.38;220042;263;98959;-56
2021/08/11 02:25:06;;;;;;;;;;;;;;;22.59;67.35;96963.56;219735;263;97531;-53
2021/08/11 02:26:08;;;;;;;;;;;;;;;22.60;67.34;96967.94;220043;263;98824;-52
2021/08/11 02:27:09;;;;;;;;;;;;;;;22.59;67.41;96966.33;219872;263;98935;-56
2021/08/11 02:28:12;;;;;;;;;;;;;;;22.58;67.41;96968.28;220305;262;98882;-53
2021/08/11 02:29:13;;;;;;;;;;;;;;;22.59;67.43;96970.47;220180;262;194668;-51
2021/08/11 02:30:14;;;;;;;;;;;;;;;22.57;67.47;96970.02;219962;262;192060;-51
2021/08/11 02:31:16;;;;;;;;;;;;;;;22.58;67.50;96978.53;220034;263;97213;-55
2021/08/11 02:32:17;;;;;;;;;;;;;;;22.59;67.42;96973.23;219817;263;98950;-50
2021/08/11 02:33:18;;;;;;;;;;;;;;;22.57;67.54;96972.77;220781;262;99292;-52
2021/08/11 02:34:20;;;;;;;;;;;;;;;22.57;67.51;96969.44;222127;261;97970;-50
2021/08/11 02:35:21;;;;;;;;;;;;;;;22.55;67.52;96973.12;222369;261;97962;-47
2021/08/11 02:36:22;;;;;;;;;;;;;;;22.49;67.64;96976.66;222329;261;98011;-50
2021/08/11 02:37:24;;;;;;;;;;;;;;;22.53;67.58;96972.05;222088;261;97033;-51
2021/08/11 02:38:25;;;;;;;;;;;;;;;22.55;67.59;96976.45;221603;262;100224;-52
2021/08/11 02:39:26;;;;;;;;;;;;;;;22.57;67.52;96976.34;221366;262;98937;-57
2021/08/11 02:40:28;;;;;;;;;;;;;;;22.58;67.46;96977.95;222068;261;97972;-51
2021/08/11 02:41:30;;;;;;;;;;;;;;;22.59;67.37;96972.66;222492;261;97995;-52
2021/08/11 02:42:32;;;;;;;;;;;;;;;22.60;67.47;96973.47;222308;261;135879;-52
2021/08/11 02:43:34;;;;;;;;;;;;;;;22.65;67.20;96977.38;221629;261;195484;-47
2021/08/11 02:44:35;;;;;;;;;;;;;;;22.65;67.14;96975.99;221560;261;193847;-54
2021/08/11 02:45:37;;;;;;;;;;;;;;;22.66;67.09;96979.02;221058;262;99029;-49
2021/08/11 02:46:39;;;;;;;;;;;;;;;22.70;67.01;96973.84;221358;262;99013;-52
2021/08/11 02:47:40;;;;;;;;;;;;;;;22.66;67.14;96974.30;220776;262;98934;-46
2021/08/11 02:48:42;;;;;;;;;;;;;;;22.67;67.14;96977.29;221275;262;98963;-53
2021/08/11 02:49:43;;;;;;;;;;;;;;;22.67;67.17;96978.67;222348;261;98972;-62
2021/08/11 02:51:25;;;;;;;;;;;;;;;22.71;67.32;96979.59;226982;255;68947;-59
2021/08/11 02:52:26;;;;;;;;;;;;;;;22.68;67.38;96982.23;222518;260;190294;-51
2021/08/11 02:53:28;;;;;;;;;;;;;;;22.62;67.50;96989.12;221099;261;275522;-53
2021/08/11 02:54:29;;;;;;;;;;;;;;;22.56;67.78;96983.59;220626;262;194776;-53
2021/08/11 02:55:30;;;;;;;;;;;;;;;22.58;67.69;96985.44;222756;260;193359;-54
2021/08/11 02:56:32;;;;;;;;;;;;;;;22.62;67.55;96983.02;221225;262;98946;-58
2021/08/11 02:57:33;;;;;;;;;;;;;;;22.66;67.50;96987.30;222781;259;97982;-59
2021/08/11 02:58:37;;;;;;;;;;;;;;;22.65;67.53;96984.28;222991;260;98001;-55
2021/08/11 02:59:38;;;;;;;;;;;;;;;22.63;67.55;96981.86;222977;260;68358;-57
2021/08/11 03:00:39;;;;;;;;;;;;;;;22.63;67.60;96985.20;221262;261;275576;-53
2021/08/11 03:01:40;;;;;;;;;;;;;;;22.63;67.57;96984.63;221363;261;194765;-56
2021/08/11 03:02:42;;;;;;;;;;;;;;;22.63;67.68;96983.82;221342;261;191964;-55
2021/08/11 03:03:43;;;;;;;;;;;;;;;22.61;67.75;96981.98;221622;261;98958;-56
2021/08/11 03:04:45;;;;;;;;;;;;;;;22.65;67.67;96984.28;222297;261;98687;-58
2021/08/11 03:05:46;;;;;;;;;;;;;;;22.72;67.59;96980.39;222716;261;98982;-52
2021/08/11 03:06:47;;;;;;;;;;;;;;;22.73;67.60;96983.39;222585;261;98914;-54
2021/08/11 03:07:48;;;;;;;;;;;;;;;22.76;67.65;96978.58;222810;261;98868;-58
2021/08/11 03:08:50;;;;;;;;;;;;;;;22.71;67.66;96980.16;222217;261;98925;-52
2021/08/11 03:09:51;;;;;;;;;;;;;;;22.63;67.99;96982.44;220779;262;193355;-53
2021/08/11 03:10:53;;;;;;;;;;;;;;;22.66;67.84;96981.20;221205;262;98020;-53
2021/08/11 03:11:54;;;;;;;;;;;;;;;22.66;67.83;96980.40;221456;262;98941;-56
2021/08/11 03:12:55;;;;;;;;;;;;;;;22.63;67.94;96984.63;222176;260;99039;-50
2021/08/11 03:13:57;;;;;;;;;;;;;;;22.62;68.02;96980.83;221963;260;98992;-53
2021/08/11 03:14:58;;;;;;;;;;;;;;;22.60;67.98;96982.55;222046;262;97643;-53
2021/08/11 03:15:59;;;;;;;;;;;;;;;22.60;67.98;96988.08;222190;260;98117;-51
2021/08/11 03:17:01;;;;;;;;;;;;;;;22.61;68.02;96986.12;221262;261;96972;-57
2021/08/11 03:18:02;;;;;;;;;;;;;;;22.70;67.84;96979.94;221288;262;98942;-52
2021/08/11 03:19:03;;;;;;;;;;;;;;;22.72;67.92;96990.06;222380;260;99121;-56
2021/08/11 03:20:05;;;;;;;;;;;;;;;22.75;67.73;96985.23;222022;261;97964;-52
2021/08/11 03:21:06;;;;;;;;;;;;;;;22.65;68.22;96989.81;221452;261;98005;-55
2021/08/11 03:22:07;;;;;;;;;;;;;;;22.51;71.34;96985.98;221114;262;98107;-57
2021/08/11 03:23:12;;;;;;;;;;;;;;;22.29;70.89;96980.84;221798;261;98973;-54
2021/08/11 03:24:12;;;;;;;;;;;;;;;22.42;69.12;96984.67;222125;261;161520;-58
2021/08/11 03:25:13;;;;;;;;;;;;;;;22.57;68.51;96983.82;222002;261;98004;-58
2021/08/11 03:26:14;;;;;;;;;;;;;;;22.76;68.14;96993.78;222207;261;97760;-55
2021/08/11 03:27:16;;;;;;;;;;;;;;;22.69;68.34;96994.33;223002;260;98028;-55
2021/08/11 03:28:17;;;;;;;;;;;;;;;22.72;67.89;96988.11;222820;260;97064;-54
2021/08/11 03:29:18;;;;;;;;;;;;;;;22.60;68.05;96994.18;223077;259;100302;-52
2021/08/11 03:30:20;;;;;;;;;;;;;;;22.64;68.13;96989.00;222211;261;100246;-52
2021/08/11 03:31:21;;;;;;;;;;;;;;;22.72;68.13;96993.63;222339;261;98966;-57
2021/08/11 03:32:22;;;;;;;;;;;;;;;22.66;67.91;96991.45;222771;261;99050;-53
2021/08/11 03:33:24;;;;;;;;;;;;;;;22.78;67.81;96997.00;222555;261;98029;-54
2021/08/11 03:34:25;;;;;;;;;;;;;;;22.74;67.64;96993.28;222357;261;98946;-54
2021/08/11 03:35:26;;;;;;;;;;;;;;;22.76;67.68;96996.54;222466;261;99051;-54
2021/08/11 03:36:28;;;;;;;;;;;;;;;22.58;69.07;96992.34;222522;261;98969;-54
2021/08/11 03:37:29;;;;;;;;;;;;;;;22.60;68.21;96994.18;222231;261;98938;-53
2021/08/11 03:38:30;;;;;;;;;;;;;;;22.67;68.07;96993.87;222101;261;99038;-54
2021/08/11 03:39:32;;;;;;;;;;;;;;;22.51;68.82;96989.55;222777;261;98970;-56
2021/08/11 03:40:33;;;;;;;;;;;;;;;22.59;68.33;96995.33;222564;261;98805;-53
2021/08/11 03:41:34;;;;;;;;;;;;;;;22.67;68.03;96993.06;222810;261;99045;-55
2021/08/11 03:42:36;;;;;;;;;;;;;;;22.67;67.94;96997.20;222564;261;98962;-56
2021/08/11 03:43:37;;;;;;;;;;;;;;;22.66;67.89;96992.83;221634;262;98984;-55
2021/08/11 03:44:38;;;;;;;;;;;;;;;22.73;67.85;96991.10;221205;262;99350;-59
2021/08/11 03:45:42;;;;;;;;;;;;;;;22.69;67.80;96997.66;221233;261;98004;-53
2021/08/11 03:46:43;;;;;;;;;;;;;;;22.72;67.79;97001.92;220861;261;69026;-54
2021/08/11 03:47:44;;;;;;;;;;;;;;;22.75;67.76;96999.05;221549;261;98936;-54
2021/08/11 03:48:45;;;;;;;;;;;;;;;22.76;67.94;96996.54;220990;262;98135;-55
2021/08/11 03:49:49;;;;;;;;;;;;;;;22.70;67.78;96995.94;222794;259;98019;-58
2021/08/11 03:50:50;;;;;;;;;;;;;;;22.87;67.58;96997.75;221592;262;244012;-54
2021/08/11 03:51:51;;;;;;;;;;;;;;;22.81;67.48;96997.69;222447;260;195456;-52
2021/08/11 03:52:52;;;;;;;;;;;;;;;22.86;67.42;97000.83;221667;262;192943;-53
2021/08/11 03:53:54;;;;;;;;;;;;;;;22.87;67.38;96996.94;223028;260;98014;-52
2021/08/11 03:54:55;;;;;;;;;;;;;;;22.83;67.39;96995.38;221323;262;98939;-56
2021/08/11 03:55:56;;;;;;;;;;;;;;;22.88;67.37;97000.73;222657;261;99049;-58
2021/08/11 03:56:58;;;;;;;;;;;;;;;22.81;67.40;96996.30;221432;261;98962;-55
2021/08/11 03:57:59;;;;;;;;;;;;;;;22.77;68.18;97001.72;221781;261;98951;-56
2021/08/11 03:59:00;;;;;;;;;;;;;;;22.77;67.66;97003.10;221621;261;98961;-54
2021/08/11 04:00:02;;;;;;;;;;;;;;;22.77;67.62;97003.10;222087;261;192960;-61
2021/08/11 04:01:03;;;;;;;;;;;;;;;22.71;67.71;96999.50;222461;261;98011;-52
2021/08/11 04:02:05;;;;;;;;;;;;;;;22.81;67.58;97000.45;221971;261;98962;-54
2021/08/11 04:03:06;;;;;;;;;;;;;;;22.77;67.52;97003.10;220835;262;99002;-55
2021/08/11 04:04:07;;;;;;;;;;;;;;;22.72;67.70;97004.69;220306;262;98963;-53
2021/08/11 04:05:09;;;;;;;;;;;;;;;22.70;67.70;97008.37;221538;262;100327;-55
2021/08/11 04:06:10;;;;;;;;;;;;;;;22.67;67.80;97001.34;221377;262;100226;-54
2021/08/11 04:07:12;;;;;;;;;;;;;;;22.72;67.66;97001.12;220904;262;192910;-55
2021/08/11 04:08:14;;;;;;;;;;;;;;;22.72;67.83;97009.41;221284;262;98020;-57
2021/08/11 04:09:15;;;;;;;;;;;;;;;22.77;67.61;97000.91;221329;262;98005;-55
2021/08/11 04:10:17;;;;;;;;;;;;;;;22.74;67.65;97014.01;221716;261;98895;-58
2021/08/11 04:11:18;;;;;;;;;;;;;;;22.78;67.59;97010.23;221374;262;98960;-54
2021/08/11 04:12:19;;;;;;;;;;;;;;;22.78;67.59;97014.96;221737;261;98946;-53
2021/08/11 04:13:20;;;;;;;;;;;;;;;22.78;67.64;97019.11;221590;262;195394;-66
2021/08/11 04:14:22;;;;;;;;;;;;;;;22.89;67.49;97016.17;221846;260;193930;-56
2021/08/11 04:15:23;;;;;;;;;;;;;;;22.87;67.38;97010.76;221951;262;98948;-53
2021/08/11 04:16:25;;;;;;;;;;;;;;;22.85;67.41;97016.60;222060;260;98961;-54
2021/08/11 04:17:26;;;;;;;;;;;;;;;22.89;67.30;97023.08;222131;262;98960;-55
2021/08/11 04:18:27;;;;;;;;;;;;;;;23.05;67.28;97017.10;222060;260;99002;-56
2021/08/11 04:19:29;;;;;;;;;;;;;;;23.00;67.17;97017.91;222102;260;97965;-58
2021/08/11 04:20:30;;;;;;;;;;;;;;;22.91;67.66;97019.39;222020;260;98012;-56
2021/08/11 04:21:31;;;;;;;;;;;;;;;23.03;67.28;97018.61;221623;262;192173;-54
2021/08/11 04:22:33;;;;;;;;;;;;;;;23.02;67.17;97016.41;222499;260;98939;-55
2021/08/11 04:23:34;;;;;;;;;;;;;;;23.05;67.02;97017.67;221465;261;98920;-53
2021/08/11 04:24:35;;;;;;;;;;;;;;;23.04;66.99;97019.64;222232;261;97979;-56
2021/08/11 04:25:39;;;;;;;;;;;;;;;23.00;67.07;97015.95;221738;262;97966;-54
2021/08/11 04:26:40;;;;;;;;;;;;;;;22.97;67.02;97016.66;222785;260;244419;-52
2021/08/11 04:27:41;;;;;;;;;;;;;;;22.96;67.10;97017.77;221582;262;195341;-55
2021/08/11 04:28:43;;;;;;;;;;;;;;;22.91;67.13;97020.77;220987;262;194473;-56
2021/08/11 04:29:45;;;;;;;;;;;;;;;22.99;67.08;97025.41;220645;263;98953;-59
2021/08/11 04:30:46;;;;;;;;;;;;;;;22.96;66.97;97022.50;220462;263;98998;-57
2021/08/11 04:31:47;;;;;;;;;;;;;;;22.93;67.10;97019.05;220667;263;99008;-56
2021/08/11 04:32:49;;;;;;;;;;;;;;;22.87;67.26;97017.09;221086;262;98872;-54
2021/08/11 04:33:50;;;;;;;;;;;;;;;22.86;67.33;97017.41;221445;262;98953;-55
2021/08/11 04:34:51;;;;;;;;;;;;;;;22.92;67.24;97016.86;220334;262;195529;-52
2021/08/11 04:35:53;;;;;;;;;;;;;;;22.91;67.15;97016.62;220344;263;193416;-54
2021/08/11 04:36:54;;;;;;;;;;;;;;;22.89;67.09;97018.93;220826;262;98933;-54
2021/08/11 04:37:55;;;;;;;;;;;;;;;22.87;67.14;97020.43;221284;262;98079;-51
2021/08/11 04:38:57;;;;;;;;;;;;;;;22.88;67.18;97020.09;221424;262;98039;-54
2021/08/11 04:39:58;;;;;;;;;;;;;;;22.93;67.04;97019.85;220569;262;98093;-53
2021/08/11 04:40:59;;;;;;;;;;;;;;;22.93;67.02;97021.23;220664;263;97182;-55
2021/08/11 04:42:01;;;;;;;;;;;;;;;22.85;67.18;97025.47;220443;263;98949;-59
2021/08/11 04:43:02;;;;;;;;;;;;;;;22.84;67.27;97028.00;220308;263;98938;-56
2021/08/11 04:44:06;;;;;;;;;;;;;;;22.90;67.08;97019.16;220600;263;100438;-57
2021/08/11 04:45:06;;;;;;;;;;;;;;;22.75;67.46;97021.15;222626;260;67073;-52
2021/08/11 04:46:08;;;;;;;;;;;;;;;22.81;67.35;97023.94;222667;260;98968;-52
2021/08/11 04:47:09;;;;;;;;;;;;;;;22.80;67.30;97030.05;221955;261;98963;-54
2021/08/11 04:48:10;;;;;;;;;;;;;;;22.81;67.35;97025.32;220398;263;277118;-55
2021/08/11 04:49:12;;;;;;;;;;;;;;;22.77;67.29;97023.02;221611;262;194496;-59
2021/08/11 04:50:13;;;;;;;;;;;;;;;22.77;67.38;97024.41;221343;262;193036;-57
2021/08/11 04:51:14;;;;;;;;;;;;;;;22.77;67.41;97025.78;221764;262;98129;-55
2021/08/11 04:52:16;;;;;;;;;;;;;;;22.79;67.39;97022.10;221683;262;98913;-52
2021/08/11 04:53:17;;;;;;;;;;;;;;;22.81;67.17;97023.94;221509;262;98975;-51
2021/08/11 04:54:19;;;;;;;;;;;;;;;22.83;67.18;97027.16;221966;261;99344;-54
2021/08/11 04:55:20;;;;;;;;;;;;;;;22.77;67.29;97032.69;222472;261;98968;-58
2021/08/11 04:56:21;;;;;;;;;;;;;;;22.72;67.46;97032.89;222136;261;98000;-54
2021/08/11 04:57:23;;;;;;;;;;;;;;;22.79;67.26;97034.53;221646;261;194680;-50
2021/08/11 04:58:24;;;;;;;;;;;;;;;22.79;67.27;97031.20;221538;262;98950;-57
2021/08/11 04:59:25;;;;;;;;;;;;;;;22.81;67.22;97032.23;221968;261;97951;-50
2021/08/11 05:00:27;;;;;;;;;;;;;;;22.87;67.14;97036.44;221920;262;97953;-49
2021/08/11 05:01:28;;;;;;;;;;;;;;;22.89;66.95;97033.33;221612;261;98003;-54
2021/08/11 05:02:30;;;;;;;;;;;;;;;22.89;67.02;97033.33;222204;261;98829;-53
2021/08/11 05:03:31;;;;;;;;;;;;;;;22.88;66.92;97029.76;221615;262;97978;-55
2021/08/11 05:04:32;;;;;;;;;;;;;;;22.82;67.16;97028.31;220553;263;193109;-53
2021/08/11 05:05:34;;;;;;;;;;;;;;;22.85;67.11;97029.61;222620;260;97455;-55
2021/08/11 05:06:35;;;;;;;;;;;;;;;22.86;67.01;97025.70;222012;259;100732;-53
2021/08/11 05:07:36;;;;;;;;;;;;;;;22.82;67.10;97029.70;223192;260;100854;-52
2021/08/11 05:08:38;;;;;;;;;;;;;;;22.75;67.24;97034.97;222557;260;98950;-57
2021/08/11 05:09:39;;;;;;;;;;;;;;;22.72;67.46;97041.98;222111;261;97717;-50
2021/08/11 05:10:40;;;;;;;;;;;;;;;22.77;67.27;97042.36;222028;261;98057;-56
2021/08/11 05:11:42;;;;;;;;;;;;;;;22.79;67.22;97043.63;221889;261;98007;-58
2021/08/11 05:12:43;;;;;;;;;;;;;;;22.74;67.33;97043.02;222630;261;98019;-53
2021/08/11 05:13:45;;;;;;;;;;;;;;;22.77;67.30;97043.75;221777;260;98114;-55
2021/08/11 05:14:46;;;;;;;;;;;;;;;22.72;67.39;97046.70;222184;260;98004;-53
2021/08/11 05:15:47;;;;;;;;;;;;;;;22.67;67.57;97042.22;222879;260;100226;-53
2021/08/11 05:16:49;;;;;;;;;;;;;;;22.71;67.45;97041.75;221901;261;98871;-57
2021/08/11 05:17:50;;;;;;;;;;;;;;;22.73;67.44;97045.55;221611;261;98949;-52
2021/08/11 05:18:51;;;;;;;;;;;;;;;22.73;67.37;97048.31;221752;260;193464;-56
2021/08/11 05:19:53;;;;;;;;;;;;;;;22.72;67.39;97045.32;222237;260;98869;-52
2021/08/11 05:20:54;;;;;;;;;;;;;;;22.65;67.57;97054.73;222069;260;98001;-58
2021/08/11 05:21:55;;;;;;;;;;;;;;;22.68;67.53;97049.92;221821;261;97948;-55